ěÝzenÝ letovÚho provozu ╚eskÚ republiky
Letiste: LKPR Aktualizace: 18.05.2022 00:30:30  UTC
 METAR LKPR 18.05. 00:30 ...
METAR LKPR 180030Z 13003KT CAVOK 13/11 Q1023 NOSIG RMK REG QNH 1020=
 TAF LKPR 17.05. 23:00 ...
TAF LKPR 172300Z 1800/1906 VRB02KT CAVOK      TEMPO 1802/1805 3000 BR NSC      BECMG 1807/1809 14006KT=